createdAt,value
2022-07-29T00:00:49.238Z,53406.80
2022-07-29T00:01:52.214Z,53354.69
2022-07-29T00:02:55.549Z,53359.70
2022-07-29T00:03:58.836Z,53401.79
2022-07-29T00:05:01.822Z,53358.70
2022-07-29T00:06:04.737Z,53374.73
2022-07-29T00:07:07.918Z,53410.81
2022-07-29T00:08:12.725Z,53396.78
2022-07-29T00:09:15.720Z,53395.78
2022-07-29T00:10:18.798Z,53349.68
2022-07-29T00:11:21.772Z,53370.73
2022-07-29T00:12:26.258Z,53376.74
2022-07-29T00:13:32.187Z,53359.70
2022-07-29T00:14:33.874Z,53390.77
2022-07-29T00:15:36.855Z,53362.71
2022-07-29T00:16:39.835Z,53396.78
2022-07-29T00:17:42.620Z,53268.51
2022-07-29T00:18:45.588Z,53334.65
2022-07-29T00:19:48.350Z,53330.64
2022-07-29T00:20:51.226Z,53295.57
2022-07-29T00:21:54.511Z,53286.55
2022-07-29T00:22:57.184Z,53367.72
2022-07-29T00:23:59.952Z,53310.60
2022-07-29T00:25:02.721Z,53286.55
2022-07-29T00:26:05.703Z,53238.45
2022-07-29T00:27:08.572Z,53286.55
2022-07-29T00:28:11.553Z,53294.56
2022-07-29T00:29:33.712Z,53316.61
2022-07-29T00:30:19.149Z,53345.67
2022-07-29T00:31:22.105Z,53343.67
2022-07-29T00:32:24.999Z,53286.55
2022-07-29T00:33:27.667Z,53236.44
2022-07-29T00:34:30.643Z,53238.45
2022-07-29T00:35:33.632Z,53280.54
2022-07-29T00:36:36.596Z,53258.49
2022-07-29T00:37:39.576Z,53282.54
2022-07-29T00:38:42.653Z,53217.40
2022-07-29T00:39:45.426Z,53176.32
2022-07-29T00:40:48.306Z,53199.36
2022-07-29T00:41:50.972Z,53194.35
2022-07-29T00:42:53.953Z,53189.34
2022-07-29T00:43:56.824Z,53258.49
2022-07-29T00:44:59.808Z,53214.39
2022-07-29T00:46:02.469Z,53229.43
2022-07-29T00:47:05.415Z,53296.57
2022-07-29T00:48:08.425Z,53311.60
2022-07-29T00:49:11.767Z,53310.60
2022-07-29T00:50:14.685Z,53289.55
2022-07-29T00:51:17.663Z,53230.43
2022-07-29T00:52:20.336Z,53163.29
2022-07-29T00:53:23.205Z,53208.38
2022-07-29T00:54:26.185Z,53230.43
2022-07-29T00:55:29.262Z,53289.55
2022-07-29T00:56:32.241Z,53181.32
2022-07-29T00:57:35.422Z,53208.38
2022-07-29T00:58:38.403Z,53216.40
2022-07-29T00:59:41.280Z,53190.34
2022-07-29T01:00:45.591Z,53174.31
2022-07-29T01:01:48.414Z,53147.25
2022-07-29T01:02:51.126Z,53188.34
2022-07-29T01:03:53.793Z,53096.15
2022-07-29T01:04:56.464Z,53154.27
2022-07-29T01:05:59.238Z,53150.26
2022-07-29T01:07:02.012Z,53153.27
2022-07-29T01:08:04.779Z,53159.28
2022-07-29T01:09:07.553Z,53158.28
2022-07-29T01:10:10.735Z,53144.25
2022-07-29T01:11:13.711Z,53161.29
2022-07-29T01:12:16.689Z,53084.12
2022-07-29T01:13:19.670Z,53092.14
2022-07-29T01:14:22.660Z,53153.27
2022-07-29T01:15:25.665Z,53156.27
2022-07-29T01:16:28.393Z,53153.27
2022-07-29T01:17:31.374Z,53161.29
2022-07-29T01:18:34.348Z,53141.24
2022-07-29T01:19:37.327Z,53185.34
2022-07-29T01:20:40.320Z,53171.30
2022-07-29T01:21:43.173Z,53138.23
2022-07-29T01:22:46.374Z,53142.25
2022-07-29T01:23:49.140Z,53151.26
2022-07-29T01:24:51.902Z,53194.35
2022-07-29T01:25:56.013Z,53216.40
2022-07-29T01:26:59.188Z,53198.36
2022-07-29T01:28:01.854Z,53046.05
2022-07-29T01:29:07.618Z,53144.25
2022-07-29T01:30:09.719Z,53209.38
2022-07-29T01:31:25.034Z,53155.27
2022-07-29T01:32:27.498Z,53110.18
2022-07-29T01:33:21.552Z,53062.08
2022-07-29T01:34:24.442Z,53080.12
2022-07-29T01:35:27.099Z,53122.20
2022-07-29T01:36:29.869Z,53181.32
2022-07-29T01:37:32.843Z,53108.17
2022-07-29T01:38:35.616Z,53066.09
2022-07-29T01:39:38.290Z,53032.02
2022-07-29T01:40:40.868Z,53087.13
2022-07-29T01:41:43.627Z,53054.06
2022-07-29T01:42:46.521Z,53076.11
2022-07-29T01:43:49.282Z,53056.07
2022-07-29T01:44:52.058Z,52969.89
2022-07-29T01:45:54.823Z,53049.05
2022-07-29T01:46:57.986Z,53062.08
2022-07-29T01:48:00.882Z,53112.18
2022-07-29T01:49:03.604Z,53162.29
2022-07-29T01:50:06.428Z,53110.18
2022-07-29T01:51:09.402Z,53113.18
2022-07-29T01:52:12.476Z,53032.02
2022-07-29T01:53:15.354Z,53022.00
2022-07-29T01:54:18.748Z,53013.98
2022-07-29T01:55:21.920Z,53035.02
2022-07-29T01:56:24.900Z,53017.99
2022-07-29T01:57:27.980Z,52973.90
2022-07-29T01:58:30.951Z,52993.94
2022-07-29T01:59:33.840Z,53045.04
2022-07-29T02:00:36.610Z,53057.07
2022-07-29T02:01:39.435Z,53113.18
2022-07-29T02:02:42.353Z,53062.08
2022-07-29T02:03:45.121Z,53099.16
2022-07-29T02:04:47.722Z,53058.07
2022-07-29T02:05:50.363Z,53019.99
2022-07-29T02:06:53.027Z,52979.91
2022-07-29T02:07:55.803Z,53066.09
2022-07-29T02:08:58.479Z,53084.12
2022-07-29T02:10:01.143Z,53034.02
2022-07-29T02:11:03.912Z,53013.98
2022-07-29T02:12:06.890Z,53009.97
2022-07-29T02:13:10.083Z,53032.02
2022-07-29T02:14:13.508Z,53045.04
2022-07-29T02:15:16.644Z,53038.03
2022-07-29T02:16:21.101Z,52983.92
2022-07-29T02:17:23.945Z,52980.91
2022-07-29T02:18:27.020Z,53005.96
2022-07-29T02:19:29.986Z,52958.87
2022-07-29T02:20:32.853Z,52925.80
2022-07-29T02:21:35.838Z,52979.91
2022-07-29T02:22:38.406Z,53032.02
2022-07-29T02:23:45.113Z,53008.97
2022-07-29T02:24:45.586Z,53001.96
2022-07-29T02:25:48.387Z,53038.03
2022-07-29T02:26:51.133Z,53008.97
2022-07-29T02:27:53.901Z,53045.04
2022-07-29T02:28:56.883Z,53048.05
2022-07-29T02:29:59.647Z,53026.01
2022-07-29T02:31:02.685Z,53027.01
2022-07-29T02:32:05.196Z,53023.00
2022-07-29T02:33:08.076Z,53022.00
2022-07-29T02:34:10.844Z,53004.96
2022-07-29T02:35:13.620Z,53026.01
2022-07-29T02:36:16.590Z,53051.06
2022-07-29T02:37:19.164Z,53016.99
2022-07-29T02:38:22.057Z,52977.91
2022-07-29T02:39:25.111Z,52982.92
2022-07-29T02:40:27.877Z,53009.97
2022-07-29T02:41:30.894Z,53041.04
2022-07-29T02:42:33.836Z,53021.00
2022-07-29T02:43:36.723Z,53056.07
2022-07-29T02:44:40.004Z,53032.02
2022-07-29T02:45:42.974Z,53000.95
2022-07-29T02:46:45.988Z,52996.95
2022-07-29T02:47:48.735Z,52996.95
2022-07-29T02:48:51.883Z,52968.89
2022-07-29T02:49:54.881Z,52993.94
2022-07-29T02:50:57.553Z,53027.01
2022-07-29T02:52:00.225Z,53017.99
2022-07-29T02:53:02.992Z,52987.93
2022-07-29T02:54:05.878Z,53006.97
2022-07-29T02:55:09.575Z,53028.01
2022-07-29T02:56:12.545Z,53006.97
2022-07-29T02:57:15.423Z,52995.95
2022-07-29T02:58:18.295Z,52982.92
2022-07-29T02:59:21.271Z,53009.97
2022-07-29T03:00:24.033Z,52978.91
2022-07-29T03:01:26.869Z,52981.92
2022-07-29T03:02:29.585Z,52941.84
2022-07-29T03:03:33.986Z,52958.87
2022-07-29T03:04:36.787Z,52959.87
2022-07-29T03:05:39.439Z,53004.96
2022-07-29T03:06:42.099Z,52987.93
2022-07-29T03:07:44.769Z,52949.85
2022-07-29T03:08:47.646Z,52995.95
2022-07-29T03:09:50.828Z,52987.93
2022-07-29T03:10:54.009Z,52957.87
2022-07-29T03:11:56.791Z,52952.86
2022-07-29T03:12:59.557Z,52947.85
2022-07-29T03:14:02.119Z,53021.00
2022-07-29T03:15:04.909Z,52977.91
2022-07-29T03:16:08.673Z,52977.91
2022-07-29T03:17:11.574Z,52970.89
2022-07-29T03:18:14.645Z,52973.90
2022-07-29T03:19:17.520Z,52994.94
2022-07-29T03:20:20.438Z,53007.97
2022-07-29T03:21:23.382Z,52995.95
2022-07-29T03:22:26.347Z,52962.88
2022-07-29T03:23:35.346Z,53036.03
2022-07-29T03:24:34.142Z,52972.90
2022-07-29T03:25:37.016Z,52987.93
2022-07-29T03:26:40.310Z,52999.95
2022-07-29T03:27:43.182Z,52967.89
2022-07-29T03:28:46.256Z,52993.94
2022-07-29T03:29:50.689Z,52974.90
2022-07-29T03:30:53.787Z,52990.93
2022-07-29T03:31:58.064Z,52966.89
2022-07-29T03:33:00.725Z,52994.94
2022-07-29T03:34:05.138Z,52993.94
2022-07-29T03:35:08.019Z,52968.89
2022-07-29T03:36:10.886Z,52977.91
2022-07-29T03:37:13.964Z,53031.02
2022-07-29T03:38:17.142Z,52974.90
2022-07-29T03:39:20.845Z,52947.85
2022-07-29T03:40:23.925Z,53006.97
2022-07-29T03:41:27.004Z,53011.98
2022-07-29T03:42:34.152Z,52950.85
2022-07-29T03:43:34.806Z,53004.96
2022-07-29T03:44:37.770Z,52989.93
2022-07-29T03:45:40.756Z,52959.87
2022-07-29T03:46:43.766Z,52992.94
2022-07-29T03:47:51.212Z,52966.89
2022-07-29T03:48:51.247Z,52989.93
2022-07-29T03:49:54.096Z,53000.95
2022-07-29T03:50:57.074Z,53022.00
2022-07-29T03:51:59.741Z,53011.98
2022-07-29T03:53:02.522Z,52981.92
2022-07-29T03:54:09.846Z,52987.93
2022-07-29T03:55:09.593Z,53013.98
2022-07-29T03:56:12.464Z,52977.91
2022-07-29T03:57:15.339Z,52985.92
2022-07-29T03:58:18.005Z,52977.91
2022-07-29T03:59:20.883Z,53017.99
2022-07-29T04:00:23.569Z,53029.01
2022-07-29T04:01:26.317Z,52981.92
2022-07-29T04:02:30.839Z,53030.02
2022-07-29T04:03:33.408Z,53038.03
2022-07-29T04:04:36.081Z,53034.02
2022-07-29T04:05:38.949Z,52982.92
2022-07-29T04:06:41.722Z,52993.94
2022-07-29T04:07:44.196Z,53006.97
2022-07-29T04:08:46.858Z,52976.91
2022-07-29T04:09:49.528Z,52991.94
2022-07-29T04:10:52.300Z,53011.98
2022-07-29T04:12:01.491Z,52998.95
2022-07-29T04:12:59.293Z,52993.94
2022-07-29T04:14:02.049Z,53026.01
2022-07-29T04:15:04.728Z,52977.91
2022-07-29T04:16:07.608Z,52989.93
2022-07-29T04:17:10.273Z,52968.89
2022-07-29T04:18:12.936Z,52985.92
2022-07-29T04:19:15.713Z,53038.03
2022-07-29T04:20:18.592Z,53002.96
2022-07-29T04:21:21.557Z,52995.95
2022-07-29T04:22:24.544Z,52997.95
2022-07-29T04:23:28.230Z,53013.98
2022-07-29T04:24:31.210Z,53051.06
2022-07-29T04:25:34.089Z,53019.99
2022-07-29T04:26:37.056Z,52991.94
2022-07-29T04:27:40.035Z,53014.98
2022-07-29T04:28:43.012Z,52983.92
2022-07-29T04:29:56.633Z,52973.90
2022-07-29T04:30:50.587Z,53014.98
2022-07-29T04:31:53.285Z,52989.93
2022-07-29T04:32:56.149Z,53039.03
2022-07-29T04:33:58.925Z,53025.00
2022-07-29T04:35:01.593Z,53040.04
2022-07-29T04:36:04.266Z,53014.98
2022-07-29T04:37:08.875Z,52993.94
2022-07-29T04:38:15.933Z,53052.06
2022-07-29T04:39:22.167Z,53030.02
2022-07-29T04:40:20.889Z,52995.95
2022-07-29T04:41:23.753Z,52986.93
2022-07-29T04:42:29.410Z,52997.95
2022-07-29T04:43:36.802Z,53017.99
2022-07-29T04:44:39.676Z,52999.95
2022-07-29T04:45:42.212Z,53014.98
2022-07-29T04:46:45.334Z,53004.96
2022-07-29T04:47:48.272Z,53048.05
2022-07-29T04:48:51.401Z,53017.99
2022-07-29T04:49:54.227Z,53004.96
2022-07-29T04:50:57.726Z,53018.99
2022-07-29T04:52:01.459Z,53052.06
2022-07-29T04:53:04.284Z,52997.95
2022-07-29T04:54:06.958Z,53008.97
2022-07-29T04:55:10.239Z,52989.93
2022-07-29T04:56:13.418Z,53037.03
2022-07-29T04:57:16.292Z,53030.02
2022-07-29T04:58:19.472Z,53024.00
2022-07-29T04:59:22.482Z,53032.02
2022-07-29T05:00:28.139Z,53031.02
2022-07-29T05:01:30.328Z,53016.99
2022-07-29T05:02:33.315Z,53022.00
2022-07-29T05:03:35.997Z,53001.96
2022-07-29T05:04:39.076Z,53013.98
2022-07-29T05:05:41.951Z,53045.04
2022-07-29T05:06:44.825Z,53059.07
2022-07-29T05:07:47.604Z,53063.08
2022-07-29T05:08:50.377Z,53024.00
2022-07-29T05:09:53.142Z,53023.00
2022-07-29T05:10:56.036Z,53038.03
2022-07-29T05:11:59.199Z,53058.07
2022-07-29T05:13:01.987Z,53073.10
2022-07-29T05:14:04.743Z,53049.05
2022-07-29T05:15:07.620Z,53026.01
2022-07-29T05:16:10.562Z,53019.99
2022-07-29T05:17:13.576Z,53043.04
2022-07-29T05:18:16.244Z,53029.01
2022-07-29T05:19:18.909Z,53069.09
2022-07-29T05:20:21.683Z,53047.05
2022-07-29T05:21:24.667Z,53027.01
2022-07-29T05:22:27.332Z,53054.06
2022-07-29T05:23:30.310Z,53058.07
2022-07-29T05:24:33.080Z,53054.06
2022-07-29T05:25:43.032Z,53017.99
2022-07-29T05:26:40.059Z,53057.07
2022-07-29T05:27:45.493Z,53034.02
2022-07-29T05:28:48.364Z,53014.98
2022-07-29T05:29:51.143Z,53043.04
2022-07-29T05:30:53.822Z,53023.00
2022-07-29T05:31:56.691Z,53014.98
2022-07-29T05:32:59.470Z,53012.98
2022-07-29T05:34:02.223Z,53024.00
2022-07-29T05:35:05.011Z,53055.07
2022-07-29T05:36:08.520Z,53061.08
2022-07-29T05:37:11.370Z,53013.98
2022-07-29T05:38:14.240Z,53050.05
2022-07-29T05:39:17.117Z,53016.99
2022-07-29T05:40:21.425Z,53042.04
2022-07-29T05:41:24.090Z,53024.00
2022-07-29T05:42:26.764Z,53044.04
2022-07-29T05:43:29.486Z,53024.00
2022-07-29T05:44:32.639Z,52997.95
2022-07-29T05:45:35.701Z,53064.08
2022-07-29T05:46:40.168Z,53050.05
2022-07-29T05:47:43.795Z,53031.02
2022-07-29T05:48:46.851Z,53023.00
2022-07-29T05:49:49.649Z,53006.97
2022-07-29T05:50:52.423Z,52997.95
2022-07-29T05:51:55.189Z,53036.03
2022-07-29T05:52:57.860Z,53033.02
2022-07-29T05:54:00.845Z,53063.08
2022-07-29T05:55:03.526Z,53052.06
2022-07-29T05:56:06.381Z,53081.12
2022-07-29T05:57:08.948Z,53026.01
2022-07-29T05:58:11.738Z,53050.05
2022-07-29T05:59:18.262Z,53047.05
2022-07-29T06:00:18.700Z,53017.99
2022-07-29T06:01:21.596Z,53050.05
2022-07-29T06:02:24.462Z,53019.99
2022-07-29T06:03:27.118Z,53046.05
2022-07-29T06:04:30.351Z,52995.95
2022-07-29T06:05:33.276Z,53059.07
2022-07-29T06:06:36.457Z,53058.07
2022-07-29T06:07:39.435Z,53058.07
2022-07-29T06:08:43.954Z,53030.02
2022-07-29T06:09:47.026Z,53034.02
2022-07-29T06:10:49.908Z,53059.07
2022-07-29T06:11:52.678Z,53056.07
2022-07-29T06:12:55.554Z,53064.08
2022-07-29T06:13:58.223Z,53013.98
2022-07-29T06:15:00.997Z,53059.07
2022-07-29T06:16:04.193Z,53051.06
2022-07-29T06:17:06.948Z,53088.13
2022-07-29T06:18:09.616Z,53093.14
2022-07-29T06:19:14.030Z,53075.11
2022-07-29T06:20:16.902Z,53068.09
2022-07-29T06:21:19.569Z,53057.07
2022-07-29T06:22:22.473Z,53088.13
2022-07-29T06:23:25.118Z,53106.17
2022-07-29T06:24:27.789Z,53098.15
2022-07-29T06:25:30.766Z,53082.12
2022-07-29T06:26:37.796Z,53065.09
2022-07-29T06:27:37.742Z,53097.15
2022-07-29T06:28:42.274Z,53098.15
2022-07-29T06:29:45.022Z,53105.17
2022-07-29T06:30:49.319Z,53085.13
2022-07-29T06:31:52.312Z,53090.14
2022-07-29T06:32:54.979Z,53082.12
2022-07-29T06:33:57.665Z,53103.16
2022-07-29T06:35:31.911Z,53094.14
2022-07-29T06:36:05.442Z,53117.19
2022-07-29T06:37:08.221Z,53094.14
2022-07-29T06:38:29.940Z,53073.10
2022-07-29T06:39:17.414Z,53096.15
2022-07-29T06:40:20.529Z,53109.18
2022-07-29T06:41:23.608Z,53115.19
2022-07-29T06:42:26.693Z,53104.16
2022-07-29T06:43:29.574Z,53094.14
2022-07-29T06:44:32.948Z,53100.16
2022-07-29T06:45:35.926Z,53095.15
2022-07-29T06:46:39.199Z,53128.21
2022-07-29T06:47:42.188Z,53078.11
2022-07-29T06:48:45.212Z,53112.18
2022-07-29T06:49:47.946Z,53117.19
2022-07-29T06:50:50.812Z,53102.16
2022-07-29T06:51:53.579Z,53123.20
2022-07-29T06:52:56.251Z,53120.20
2022-07-29T06:54:02.440Z,53137.23
2022-07-29T06:55:03.050Z,53123.20
2022-07-29T06:56:05.686Z,53085.13
2022-07-29T06:57:09.084Z,53150.26
2022-07-29T06:58:11.960Z,53133.23
2022-07-29T06:59:14.839Z,53117.19
2022-07-29T07:00:17.707Z,53108.17
2022-07-29T07:01:20.644Z,53130.22
2022-07-29T07:02:25.088Z,53153.27
2022-07-29T07:03:28.175Z,53124.21
2022-07-29T07:04:31.154Z,53154.27
2022-07-29T07:05:34.025Z,53163.29
2022-07-29T07:06:36.903Z,53124.21
2022-07-29T07:07:39.987Z,53126.21
2022-07-29T07:08:42.849Z,53159.28
2022-07-29T07:09:45.626Z,53092.14
2022-07-29T07:10:48.603Z,53137.23
2022-07-29T07:11:51.373Z,53188.34
2022-07-29T07:12:54.352Z,53144.25
2022-07-29T07:14:02.639Z,53158.28
2022-07-29T07:15:01.324Z,53164.29
2022-07-29T07:16:04.002Z,53158.28
2022-07-29T07:17:06.607Z,53144.25
2022-07-29T07:18:09.338Z,53162.29
2022-07-29T07:19:12.224Z,53158.28
2022-07-29T07:20:16.726Z,53144.25
2022-07-29T07:21:19.905Z,53169.30
2022-07-29T07:22:22.883Z,53125.21
2022-07-29T07:23:25.785Z,53120.20
2022-07-29T07:24:28.632Z,53123.20
2022-07-29T07:25:31.607Z,53130.22
2022-07-29T07:26:34.585Z,53120.20
2022-07-29T07:27:37.564Z,53134.23
2022-07-29T07:28:40.651Z,53127.21
2022-07-29T07:29:44.239Z,53137.23
2022-07-29T07:30:47.213Z,53144.25
2022-07-29T07:31:49.842Z,53155.27
2022-07-29T07:32:52.653Z,53121.20
2022-07-29T07:33:55.430Z,53126.21
2022-07-29T07:34:58.201Z,53160.28
2022-07-29T07:36:01.791Z,53132.22
2022-07-29T07:37:04.466Z,53126.21
2022-07-29T07:38:07.130Z,53126.21
2022-07-29T07:39:09.800Z,53125.21
2022-07-29T07:40:12.626Z,53189.34
2022-07-29T07:41:16.991Z,53121.20
2022-07-29T07:42:19.652Z,53149.26
2022-07-29T07:43:22.422Z,53146.25
2022-07-29T07:44:25.101Z,53151.26
2022-07-29T07:45:27.866Z,53171.30
2022-07-29T07:46:30.538Z,53146.25
2022-07-29T07:47:33.210Z,53163.29
2022-07-29T07:48:37.291Z,53145.25
2022-07-29T07:49:40.091Z,53144.25
2022-07-29T07:50:44.386Z,53157.28
2022-07-29T07:51:50.381Z,53172.31
2022-07-29T07:52:51.364Z,53127.21
2022-07-29T07:53:54.039Z,53141.24
2022-07-29T07:54:57.528Z,53144.25
2022-07-29T07:56:15.711Z,53170.30
2022-07-29T07:57:04.501Z,53175.31
2022-07-29T07:58:07.276Z,53129.22
2022-07-29T07:59:09.947Z,53169.30
2022-07-29T08:00:13.333Z,53100.16
2022-07-29T08:01:16.070Z,53158.28
2022-07-29T08:02:19.033Z,53172.31
2022-07-29T08:03:22.166Z,53140.24
2022-07-29T08:04:28.263Z,53158.28
2022-07-29T08:05:29.548Z,53159.28
2022-07-29T08:06:32.218Z,53152.27
2022-07-29T08:07:34.786Z,53152.27
2022-07-29T08:08:37.758Z,53150.26
2022-07-29T08:09:40.438Z,53166.29
2022-07-29T08:10:43.209Z,53147.25
2022-07-29T08:11:52.216Z,53159.28
2022-07-29T08:12:50.591Z,53213.39
2022-07-29T08:13:53.361Z,53165.29
2022-07-29T08:14:56.441Z,53161.29
2022-07-29T08:15:59.263Z,53155.27
2022-07-29T08:17:01.960Z,53190.34
2022-07-29T08:18:08.692Z,53168.30
2022-07-29T08:19:08.965Z,53150.26
2022-07-29T08:20:11.840Z,53164.29
2022-07-29T08:21:15.465Z,53171.30
2022-07-29T08:22:18.509Z,53186.34
2022-07-29T08:23:21.488Z,53176.32
2022-07-29T08:24:24.465Z,53157.28
2022-07-29T08:25:27.445Z,53208.38
2022-07-29T08:26:30.630Z,53186.34
2022-07-29T08:27:43.337Z,53198.36
2022-07-29T08:28:37.913Z,53187.34
2022-07-29T08:29:40.885Z,53194.35
2022-07-29T08:30:43.762Z,53182.33
2022-07-29T08:31:46.695Z,53170.30
2022-07-29T08:32:54.461Z,53219.41
2022-07-29T08:33:53.717Z,53180.32
2022-07-29T08:34:56.692Z,53214.39
2022-07-29T08:35:59.467Z,53182.33
2022-07-29T08:37:02.237Z,53198.36
2022-07-29T08:38:05.010Z,53192.35
2022-07-29T08:39:07.780Z,53190.34
2022-07-29T08:40:10.570Z,53185.34
2022-07-29T08:41:13.322Z,53170.30
2022-07-29T08:42:16.099Z,53213.39
2022-07-29T08:43:18.770Z,53194.35
2022-07-29T08:44:22.419Z,53184.33
2022-07-29T08:45:26.032Z,53191.35
2022-07-29T08:46:28.927Z,53192.35
2022-07-29T08:47:31.700Z,53160.28
2022-07-29T08:48:34.579Z,53191.35
2022-07-29T08:49:37.349Z,53189.34
2022-07-29T08:50:40.221Z,53223.41
2022-07-29T08:51:49.257Z,53192.35
2022-07-29T08:52:47.813Z,53182.33
2022-07-29T08:53:50.588Z,53197.36
2022-07-29T08:54:53.667Z,53217.40
2022-07-29T08:55:56.436Z,53232.43
2022-07-29T08:56:59.110Z,53182.33
2022-07-29T08:58:01.776Z,53201.37
2022-07-29T08:59:04.878Z,53216.40
2022-07-29T09:00:11.644Z,53197.36
2022-07-29T09:01:12.692Z,53166.29
2022-07-29T09:02:16.665Z,53191.35
2022-07-29T09:03:19.530Z,53174.31
2022-07-29T09:04:22.197Z,53171.30
2022-07-29T09:05:24.866Z,53157.28
2022-07-29T09:06:27.650Z,53167.30
2022-07-29T09:07:33.028Z,53194.35
2022-07-29T09:08:35.036Z,53172.31
2022-07-29T09:09:37.701Z,53195.36
2022-07-29T09:10:40.586Z,53185.34
2022-07-29T09:11:43.238Z,53186.34
2022-07-29T09:12:46.023Z,53150.26
2022-07-29T09:13:48.786Z,53164.29
2022-07-29T09:14:51.562Z,53195.36
2022-07-29T09:15:54.128Z,53208.38
2022-07-29T09:16:56.853Z,53215.40
2022-07-29T09:17:59.514Z,53211.39
2022-07-29T09:19:02.440Z,53198.36
2022-07-29T09:20:05.214Z,53220.41
2022-07-29T09:21:07.989Z,53225.42
2022-07-29T09:22:10.552Z,53219.41
2022-07-29T09:23:13.221Z,53222.41
2022-07-29T09:24:17.635Z,53178.32
2022-07-29T09:25:20.613Z,53202.37
2022-07-29T09:26:23.593Z,53215.40
2022-07-29T09:27:26.575Z,53230.43
2022-07-29T09:28:29.442Z,53239.45
2022-07-29T09:29:36.064Z,53266.50
2022-07-29T09:30:36.839Z,53250.47
2022-07-29T09:31:42.553Z,53194.35
2022-07-29T09:32:45.344Z,53208.38
2022-07-29T09:33:47.931Z,53181.32
2022-07-29T09:34:58.244Z,53200.37
2022-07-29T09:35:58.275Z,53220.41
2022-07-29T09:37:04.111Z,53204.37
2022-07-29T09:38:09.853Z,53204.37
2022-07-29T09:39:12.526Z,53200.37
2022-07-29T09:40:15.812Z,53227.42
2022-07-29T09:41:18.482Z,53233.43
2022-07-29T09:42:21.254Z,53214.39
2022-07-29T09:43:30.070Z,53207.38
2022-07-29T09:44:32.733Z,53228.42
2022-07-29T09:45:35.488Z,53204.37
2022-07-29T09:46:41.291Z,53202.37
2022-07-29T09:47:44.021Z,53180.32
2022-07-29T09:48:49.631Z,53174.31
2022-07-29T09:49:52.330Z,53190.34
2022-07-29T09:50:55.031Z,53200.37
2022-07-29T09:52:00.440Z,53220.41
2022-07-29T09:53:03.103Z,53220.41
2022-07-29T09:54:08.641Z,53205.37
2022-07-29T09:55:13.647Z,53195.36
2022-07-29T09:56:16.053Z,53223.41
2022-07-29T09:57:21.784Z,53182.33
2022-07-29T09:58:24.646Z,53184.33
2022-07-29T09:59:27.513Z,53190.34
2022-07-29T10:00:30.565Z,53208.38
2022-07-29T10:01:36.245Z,53196.36
2022-07-29T10:02:44.855Z,53219.41
2022-07-29T10:03:47.982Z,53217.40
2022-07-29T10:04:50.902Z,53248.46
2022-07-29T10:05:56.344Z,53279.53
2022-07-29T10:07:04.407Z,53267.51
2022-07-29T10:08:03.622Z,53298.57
2022-07-29T10:09:06.295Z,53315.61
2022-07-29T10:10:10.589Z,53356.70
2022-07-29T10:11:13.473Z,53308.59
2022-07-29T10:12:18.815Z,53329.64
2022-07-29T10:13:27.421Z,53383.75
2022-07-29T10:14:30.192Z,53330.64
2022-07-29T10:15:32.863Z,53342.66
2022-07-29T10:16:35.633Z,53330.64
2022-07-29T10:17:41.698Z,53334.65
2022-07-29T10:18:45.579Z,53348.68
2022-07-29T10:19:48.351Z,53376.74
2022-07-29T10:20:51.123Z,53394.77
2022-07-29T10:22:00.066Z,53404.80
2022-07-29T10:23:03.221Z,53398.79
2022-07-29T10:24:14.637Z,53394.77
2022-07-29T10:25:13.010Z,53411.81
2022-07-29T10:26:15.735Z,53419.83
2022-07-29T10:27:18.513Z,53408.80
2022-07-29T10:28:21.284Z,53382.75
2022-07-29T10:29:24.051Z,53411.81
2022-07-29T10:30:30.005Z,53422.84
2022-07-29T10:31:35.854Z,53450.89
2022-07-29T10:32:41.690Z,53426.84
2022-07-29T10:33:44.663Z,53470.94
2022-07-29T10:34:48.973Z,53463.93
2022-07-29T10:35:51.640Z,53468.93
2022-07-29T10:36:54.720Z,53457.91
2022-07-29T10:37:57.699Z,53471.94
2022-07-29T10:39:07.388Z,53485.97
2022-07-29T10:40:13.285Z,53501.00
2022-07-29T10:42:33.593Z,53460.92
2022-07-29T10:43:26.719Z,53471.94
2022-07-29T10:44:31.133Z,53451.90
2022-07-29T10:45:34.731Z,53476.95
2022-07-29T10:46:38.461Z,53471.94
2022-07-29T10:47:42.061Z,53451.90
2022-07-29T10:48:45.326Z,53432.86
2022-07-29T10:49:49.393Z,53460.92
2022-07-29T10:50:55.034Z,53472.95
2022-07-29T10:52:00.990Z,53454.91
2022-07-29T10:53:08.851Z,53462.92
2022-07-29T10:54:10.525Z,53490.98
2022-07-29T10:55:16.362Z,53472.95
2022-07-29T10:56:20.772Z,53456.91
2022-07-29T10:57:25.879Z,53479.96
2022-07-29T10:58:29.488Z,53524.05
2022-07-29T10:59:36.396Z,53442.88
2022-07-29T11:00:37.082Z,53508.02
2022-07-29T11:01:41.221Z,53438.87
2022-07-29T11:02:45.800Z,53492.99
2022-07-29T11:03:52.381Z,53468.93
2022-07-29T11:04:55.950Z,53454.91
2022-07-29T11:06:01.497Z,53475.95
2022-07-29T11:07:07.343Z,53484.97
2022-07-29T11:08:12.521Z,53490.98
2022-07-29T11:09:14.111Z,53466.93
2022-07-29T11:10:18.313Z,53488.98
2022-07-29T11:11:22.619Z,53499.00
2022-07-29T11:12:30.038Z,53545.10
2022-07-29T11:13:32.673Z,53515.04
2022-07-29T11:14:39.649Z,53523.05
2022-07-29T11:15:43.231Z,53513.03
2022-07-29T11:16:49.391Z,53482.96
2022-07-29T11:17:53.194Z,53493.99
2022-07-29T11:18:55.852Z,53509.02
2022-07-29T11:20:04.668Z,53495.99
2022-07-29T11:21:07.442Z,53524.05
2022-07-29T11:22:10.214Z,53533.07
2022-07-29T11:23:16.259Z,53531.07
2022-07-29T11:24:28.962Z,53506.02
2022-07-29T11:26:29.393Z,53490.98
2022-07-29T11:27:33.702Z,53527.06
2022-07-29T11:28:42.718Z,53532.07
2022-07-29T11:29:45.602Z,53527.06
2022-07-29T11:30:50.001Z,53510.02
2022-07-29T11:31:52.574Z,53541.09
2022-07-29T11:32:55.848Z,53536.08
2022-07-29T11:34:03.865Z,53524.05
2022-07-29T11:35:17.073Z,53559.13
2022-07-29T11:36:10.823Z,53510.02
2022-07-29T11:37:15.034Z,53545.10
2022-07-29T11:38:17.698Z,53564.14
2022-07-29T11:39:22.265Z,53506.02
2022-07-29T11:40:29.080Z,53551.11
2022-07-29T11:41:32.660Z,53536.08
2022-07-29T11:42:41.913Z,53518.04
2022-07-29T11:43:42.427Z,53558.13
2022-07-29T11:44:46.620Z,53537.08
2022-07-29T11:45:50.937Z,53528.06
2022-07-29T11:46:53.959Z,53525.05
2022-07-29T11:48:27.956Z,53536.08
2022-07-29T11:49:03.970Z,53535.08
2022-07-29T11:50:10.256Z,53537.08
2022-07-29T11:51:12.374Z,53533.07
2022-07-29T11:52:16.072Z,53546.10
2022-07-29T11:53:18.936Z,53547.11
2022-07-29T11:54:27.483Z,53589.20
2022-07-29T11:55:32.672Z,53564.14
2022-07-29T11:56:31.566Z,53538.09
2022-07-29T11:57:37.271Z,53577.17
2022-07-29T11:58:39.769Z,53555.12
2022-07-29T11:59:43.466Z,53529.06
2022-07-29T12:02:36.361Z,53537.08
2022-07-29T12:03:12.392Z,53513.03
2022-07-29T12:04:18.001Z,53508.02
2022-07-29T12:05:36.262Z,53533.07
2022-07-29T12:06:26.725Z,53575.17
2022-07-29T12:07:32.528Z,53569.15
2022-07-29T12:08:36.662Z,53541.09
2022-07-29T12:09:41.743Z,53542.09
2022-07-29T12:10:50.413Z,53541.09
2022-07-29T12:11:52.970Z,53492.99
2022-07-29T12:12:55.944Z,53518.04
2022-07-29T12:13:58.610Z,53554.12
2022-07-29T12:15:01.491Z,53505.01
2022-07-29T12:16:07.601Z,53517.04
2022-07-29T12:17:10.415Z,53524.05
2022-07-29T12:18:13.081Z,53526.06
2022-07-29T12:19:18.721Z,53539.09
2022-07-29T12:20:21.601Z,53521.05
2022-07-29T12:21:25.929Z,53538.09
2022-07-29T12:22:28.787Z,53557.12
2022-07-29T12:23:34.996Z,53525.05
2022-07-29T12:24:36.273Z,53565.14
2022-07-29T12:25:40.369Z,53558.13
2022-07-29T12:26:47.342Z,53505.01
2022-07-29T12:27:50.229Z,53516.04